CBJ weather

Cabo Rojo Airport
Cabo Rojo, Pedernales Province, Dominican Republic

Public forecast

Using degrees Celsius for public forecast. Weather courtesy of forecast.io.

METAR (pilot weather report)

Report is more than 6 hours old.

Closest report is Maria Montez International Airport, 35.6 nm (66.0 km) ENE. Retrieved 2019/03/25 00:00 UTC (1 day ago):

MDBH 260000Z 13006KT 9999 SCT018 25/23 Q1014

TAF (pilot weather forecast)

Forecast is more than 12 hours old.

Closest forecast is Maria Montez International Airport, 35.6 nm (66.0 km) ENE. Retrieved 2019/03/22 06:21 UTC (4 days ago):

TAF MDBH 220400Z 2206/2306 00000KT 9999 FEW018 BKN080 PROB30 2206/2212 8000 -RA FEW016CB SCT018 BKN070 BECMG 2210/2212 27004KT